Aviation Digital Data Service (ADDS)

Output produced by METARs form (1257 UTC 21 February 2018)
found at http://www.aviationweather.gov/adds/metars/
 
TAF HBBA 201100Z 2012/2118 18010G20KT 9999 FEW025 FEW028CB BKN100 
     PROB30 
     TEMPO2012/2018 080G25KT 5000 TSRA OR SHRA SCT025CB BKN100 
     BECMG2018/2020 00000KT CAVOK 
     BECMG2102/2104 36002KT 9999 FEW020 SC100 
     BECMG2107/2109 18010G25KT 9999 FEW025 FEW028CB BKN100 
     PROB30 
     TEMPO2112/2118 08015G30KT 5000 TSRA OR SHRA SCT025CB BKN100